This is the latest recevied weather packets stored in our database for station/object MHTG. If no packets are shown the sender has not sent any weather packets the latest 10 day(s).
| Time | Temp. | Humidity | Pressure | Rain* | Wind** | Luminosity | Snow |
|---|---|---|---|---|---|---|---|
| 1777473827 | 23.89° C | 64% | 1017.9 hPa | - | - | - | - |
| 1777472627 | 25° C | 61% | 1019 hPa | - | - | - | - |
| 1777472024 | 25° C | 61% | 1019 hPa | - | - | - | - |
| 1777471423 | 25° C | 61% | 1019 hPa | - | - | - | - |
| 1777470823 | 25° C | 61% | 1019 hPa | - | - | - | - |
| 1777470221 | 20.56° C | 73% | 1019 hPa | - | - | - | - |
| 1777469625 | 20.56° C | 73% | 1019 hPa | - | - | - | - |
| 1777469025 | 20.56° C | 73% | 1019 hPa | - | - | - | - |
| 1777468422 | 18.89° C | 72% | 1018 hPa | - | - | - | - |
| 1777467824 | 18.89° C | 72% | 1018 hPa | - | - | - | - |
| 1777467225 | 17.78° C | 82% | 1017.9 hPa | - | - | - | - |
| 1777466623 | 17.78° C | 82% | 1017.9 hPa | - | - | - | - |
| 1777466022 | 17.78° C | 82% | 1017.9 hPa | - | - | - | - |
| 1777465423 | 15.56° C | 87% | 1017.9 hPa | - | - | - | - |
| 1777464820 | 15.56° C | 87% | 1017.9 hPa | - | - | - | - |
| 1777464220 | 15.56° C | 87% | 1017.9 hPa | - | - | - | - |
| 1777463620 | 15.56° C | 87% | 1017.9 hPa | - | - | - | - |
| 1777463021 | 15.56° C | 87% | 1017.9 hPa | - | - | - | - |
| 1777462419 | 15.56° C | 87% | 1017.9 hPa | - | - | - | - |
| 1777461822 | 15.56° C | 87% | 1017.9 hPa | - | - | - | - |
| 1777461223 | 15.56° C | 87% | 1017.9 hPa | - | - | - | - |
| 1777460624 | 15.56° C | 87% | 1017.9 hPa | - | - | - | - |
| 1777460021 | 16.67° C | 82% | 1016.9 hPa | - | - | - | - |
| 1777459421 | 16.67° C | 82% | 1016.9 hPa | - | - | - | - |
| 1777458823 | 16.67° C | 82% | 1016.9 hPa | - | - | - | - |
* Rain since midnight (hover to see other rain measurements)
** Current wind speed in m/s (hover to see current wind gust speed)